Time;durP1;ratioP1;P1;durP2;ratioP2;P2;SDS_P1;SDS_P2;PMS_P1;PMS_P2;Temp;Humidity;BMP_temperature;BMP_pressure;BME280_temperature;BME280_humidity;BME280_pressure;Samples;Min_cycle;Max_cycle;Signal;HPM_P1;HPM_P2
2021/04/09 00:00:06;;;;;;;11.53;7.90;;;;;;;;;;5018402;28;20493;-72
2021/04/09 00:02:33;;;;;;;6.77;5.60;;;;;;;;;;5018834;28;20770;-71
2021/04/09 00:05:01;;;;;;;10.70;6.70;;;;;;;;;;5018315;28;20447;-72
2021/04/09 00:07:28;;;;;;;8.03;7.20;;;;;;;;;;5018483;28;20574;-71
2021/04/09 00:09:56;;;;;;;12.57;6.77;;;;;;;;;;5018423;28;20822;-72
2021/04/09 00:12:23;;;;;;;8.33;6.30;;;;;;;;;;5018465;28;20471;-71
2021/04/09 00:14:51;;;;;;;6.17;4.63;;;;;;;;;;5018989;28;20465;-71
2021/04/09 00:17:18;;;;;;;12.20;7.40;;;;;;;;;;5018449;28;20483;-72
2021/04/09 00:19:46;;;;;;;10.30;6.77;;;;;;;;;;5019309;28;20746;-71
2021/04/09 00:22:13;;;;;;;9.50;5.87;;;;;;;;;;5018864;28;20491;-71
2021/04/09 00:24:40;;;;;;;6.73;5.90;;;;;;;;;;5018153;28;20799;-72
2021/04/09 00:27:08;;;;;;;8.33;5.87;;;;;;;;;;5018872;28;20826;-71
2021/04/09 00:29:35;;;;;;;13.50;7.07;;;;;;;;;;5017802;28;20490;-71
2021/04/09 00:32:04;;;;;;;7.83;6.33;;;;;;;;;;5018381;28;20467;-72
2021/04/09 00:34:31;;;;;;;10.10;6.73;;;;;;;;;;5017009;28;20545;-72
2021/04/09 00:36:59;;;;;;;7.90;6.67;;;;;;;;;;5018424;28;20457;-72
2021/04/09 00:39:26;;;;;;;10.33;7.80;;;;;;;;;;5018093;28;20812;-72
2021/04/09 00:41:54;;;;;;;7.60;5.90;;;;;;;;;;5017661;28;20724;-72
2021/04/09 00:44:21;;;;;;;10.80;8.47;;;;;;;;;;5018437;28;20471;-72
2021/04/09 00:46:49;;;;;;;7.10;6.40;;;;;;;;;;5017560;28;20487;-72
2021/04/09 00:49:30;;;;;;;7.73;5.50;;;;;;;;;;5017759;28;20467;-72
2021/04/09 00:51:57;;;;;;;14.03;6.87;;;;;;;;;;5017695;28;20740;-71
2021/04/09 00:54:25;;;;;;;11.37;7.37;;;;;;;;;;5017990;28;20459;-72
2021/04/09 00:56:52;;;;;;;11.27;7.67;;;;;;;;;;5017602;28;20454;-71
2021/04/09 00:59:20;;;;;;;8.63;6.57;;;;;;;;;;5017596;28;20644;-71
2021/04/09 01:01:47;;;;;;;10.00;6.80;;;;;;;;;;5017750;28;20770;-71
2021/04/09 01:04:15;;;;;;;11.67;7.63;;;;;;;;;;5016966;28;20461;-71
2021/04/09 01:06:43;;;;;;;10.40;6.97;;;;;;;;;;5017646;28;20466;-71
2021/04/09 01:09:10;;;;;;;12.63;7.00;;;;;;;;;;5017511;28;20858;-71
2021/04/09 01:11:38;;;;;;;8.70;7.30;;;;;;;;;;5017299;28;20859;-71
2021/04/09 01:14:05;;;;;;;9.63;6.93;;;;;;;;;;5017179;28;20463;-71
2021/04/09 01:16:41;;;;;;;13.00;7.57;;;;;;;;;;5017177;28;20464;-71
2021/04/09 01:19:16;;;;;;;6.00;4.93;;;;;;;;;;5017177;28;20452;-71
2021/04/09 01:21:48;;;;;;;8.50;7.37;;;;;;;;;;5017280;28;20463;-71
2021/04/09 01:24:24;;;;;;;9.70;6.93;;;;;;;;;;5016748;28;20524;-72
2021/04/09 01:27:16;;;;;;;10.70;7.53;;;;;;;;;;5016909;28;20484;-71
2021/04/09 01:30:13;;;;;;;10.47;6.83;;;;;;;;;;5016837;28;20817;-71
2021/04/09 01:32:41;;;;;;;15.37;6.00;;;;;;;;;;4977108;28;20539;-71
2021/04/09 01:35:10;;;;;;;10.77;6.67;;;;;;;;;;5008275;28;20457;-71
2021/04/09 01:37:40;;;;;;;11.50;7.80;;;;;;;;;;5016923;28;20557;-71
2021/04/09 01:40:12;;;;;;;10.00;6.23;;;;;;;;;;5017256;28;20849;-71
2021/04/09 01:42:40;;;;;;;9.20;5.77;;;;;;;;;;5016614;28;20477;-71
2021/04/09 01:45:10;;;;;;;12.43;6.00;;;;;;;;;;5017518;28;20449;-72
2021/04/09 01:47:38;;;;;;;8.50;5.50;;;;;;;;;;5016212;28;20497;-71
2021/04/09 01:50:11;;;;;;;11.93;6.63;;;;;;;;;;5016783;28;20459;-71
2021/04/09 01:52:38;;;;;;;8.87;5.53;;;;;;;;;;5016608;28;20470;-71
2021/04/09 01:55:06;;;;;;;14.80;7.50;;;;;;;;;;5016180;28;20534;-72
2021/04/09 01:57:34;;;;;;;9.57;6.30;;;;;;;;;;5016359;28;20791;-71
2021/04/09 02:00:02;;;;;;;11.40;6.70;;;;;;;;;;5016275;28;20725;-71
2021/04/09 02:02:30;;;;;;;11.97;5.83;;;;;;;;;;5016548;28;20453;-71
2021/04/09 02:04:58;;;;;;;8.37;5.37;;;;;;;;;;5016467;28;20456;-71
2021/04/09 02:07:27;;;;;;;8.77;6.50;;;;;;;;;;5016269;28;20494;-71
2021/04/09 02:09:59;;;;;;;8.67;5.47;;;;;;;;;;5016611;28;20880;-71
2021/04/09 02:12:27;;;;;;;12.20;5.60;;;;;;;;;;5015901;28;20566;-71
2021/04/09 02:14:56;;;;;;;8.67;6.47;;;;;;;;;;5017000;28;20451;-71
2021/04/09 02:17:24;;;;;;;13.53;7.67;;;;;;;;;;5017178;28;20462;-71
2021/04/09 02:19:52;;;;;;;8.43;4.97;;;;;;;;;;5016502;28;20464;-71
2021/04/09 02:22:19;;;;;;;7.10;4.50;;;;;;;;;;5017397;28;20863;-71
2021/04/09 02:24:48;;;;;;;11.13;6.03;;;;;;;;;;5017033;28;20785;-71
2021/04/09 02:27:40;;;;;;;10.77;6.30;;;;;;;;;;5016692;28;20510;-71
2021/04/09 02:30:18;;;;;;;8.80;4.97;;;;;;;;;;5014164;28;20451;-72
2021/04/09 02:32:45;;;;;;;7.63;4.70;;;;;;;;;;5016104;28;20456;-72
2021/04/09 02:35:13;;;;;;;6.60;4.63;;;;;;;;;;5016921;28;20542;-72
2021/04/09 02:37:42;;;;;;;7.13;5.90;;;;;;;;;;5016147;28;20443;-71
2021/04/09 02:40:14;;;;;;;7.90;6.10;;;;;;;;;;5016799;28;20530;-72
2021/04/09 02:42:41;;;;;;;7.30;4.70;;;;;;;;;;5016489;28;20910;-71
2021/04/09 02:45:13;;;;;;;7.87;4.80;;;;;;;;;;5017440;28;20511;-71
2021/04/09 02:47:43;;;;;;;8.90;4.67;;;;;;;;;;5015985;28;20945;-71
2021/04/09 02:50:25;;;;;;;5.83;3.23;;;;;;;;;;5015953;28;20542;-71
2021/04/09 02:52:54;;;;;;;5.43;4.93;;;;;;;;;;5015722;28;20449;-71
2021/04/09 02:55:23;;;;;;;9.90;4.77;;;;;;;;;;5015972;28;20467;-71
2021/04/09 02:57:52;;;;;;;5.10;4.50;;;;;;;;;;5018862;28;20447;-72
2021/04/09 03:00:19;;;;;;;9.10;5.07;;;;;;;;;;5019813;28;20460;-71
2021/04/09 03:02:47;;;;;;;8.27;5.10;;;;;;;;;;5019513;28;20468;-71
2021/04/09 03:05:16;;;;;;;9.50;4.23;;;;;;;;;;5019118;28;20956;-71
2021/04/09 03:07:43;;;;;;;9.80;5.53;;;;;;;;;;5019858;28;20492;-71
2021/04/09 03:10:11;;;;;;;8.63;4.87;;;;;;;;;;5018898;28;21516;-71
2021/04/09 03:12:41;;;;;;;6.60;5.30;;;;;;;;;;5019175;28;20449;-73
2021/04/09 03:15:10;;;;;;;9.50;4.90;;;;;;;;;;5019487;28;20936;-71
2021/04/09 03:17:38;;;;;;;5.10;3.60;;;;;;;;;;5019214;28;20459;-71
2021/04/09 03:20:06;;;;;;;6.30;4.23;;;;;;;;;;5018918;28;21468;-71
2021/04/09 03:22:34;;;;;;;9.57;4.70;;;;;;;;;;5019086;28;20520;-71
2021/04/09 03:25:01;;;;;;;7.40;6.10;;;;;;;;;;5018954;28;20459;-71
2021/04/09 03:27:28;;;;;;;6.10;3.90;;;;;;;;;;5018448;28;20488;-71
2021/04/09 03:29:56;;;;;;;8.03;4.17;;;;;;;;;;5019178;28;20455;-71
2021/04/09 03:32:24;;;;;;;9.10;5.67;;;;;;;;;;5019109;28;20460;-71
2021/04/09 03:34:51;;;;;;;10.40;5.33;;;;;;;;;;5019055;28;20469;-71
2021/04/09 03:37:18;;;;;;;7.53;4.90;;;;;;;;;;5019133;28;20466;-71
2021/04/09 03:39:46;;;;;;;7.97;3.60;;;;;;;;;;5018387;28;20469;-70
2021/04/09 03:42:13;;;;;;;10.50;5.47;;;;;;;;;;5019031;28;20471;-71
2021/04/09 03:44:41;;;;;;;6.27;4.83;;;;;;;;;;5018328;28;20460;-71
2021/04/09 03:47:10;;;;;;;5.60;4.20;;;;;;;;;;5019573;28;20483;-71
2021/04/09 03:49:37;;;;;;;8.47;5.30;;;;;;;;;;5018511;28;20875;-71
2021/04/09 03:52:05;;;;;;;10.10;4.50;;;;;;;;;;5019783;28;20505;-71
2021/04/09 03:54:32;;;;;;;7.67;4.47;;;;;;;;;;5018747;28;20444;-71
2021/04/09 03:57:00;;;;;;;5.30;3.07;;;;;;;;;;5018603;28;20459;-71
2021/04/09 03:59:27;;;;;;;6.87;4.13;;;;;;;;;;5019241;28;20708;-71
2021/04/09 04:01:54;;;;;;;7.33;4.27;;;;;;;;;;5018645;28;20459;-71
2021/04/09 04:04:24;;;;;;;8.20;4.53;;;;;;;;;;5018521;28;20553;-71
2021/04/09 04:06:51;;;;;;;8.97;5.10;;;;;;;;;;5017880;28;20456;-71
2021/04/09 04:09:19;;;;;;;8.20;3.90;;;;;;;;;;5018617;28;20705;-71
2021/04/09 04:11:46;;;;;;;11.70;5.50;;;;;;;;;;5018307;28;20473;-71
2021/04/09 04:14:14;;;;;;;7.97;4.47;;;;;;;;;;5017793;28;20459;-71
2021/04/09 04:16:41;;;;;;;13.30;6.70;;;;;;;;;;5018506;28;20469;-71
2021/04/09 04:19:08;;;;;;;12.03;5.10;;;;;;;;;;5018347;28;20457;-71
2021/04/09 04:21:37;;;;;;;16.57;6.63;;;;;;;;;;5018938;28;20490;-71
2021/04/09 04:24:05;;;;;;;8.73;4.73;;;;;;;;;;5018426;28;20665;-71
2021/04/09 04:26:32;;;;;;;11.30;6.27;;;;;;;;;;5018481;28;20474;-71
2021/04/09 04:28:59;;;;;;;8.97;5.90;;;;;;;;;;5018276;28;20529;-71
2021/04/09 04:31:27;;;;;;;8.43;5.53;;;;;;;;;;5018250;28;20471;-71
2021/04/09 04:33:54;;;;;;;8.53;5.37;;;;;;;;;;5018010;28;20455;-70
2021/04/09 04:36:22;;;;;;;10.83;6.07;;;;;;;;;;5018421;28;20471;-72
2021/04/09 04:38:50;;;;;;;4.00;3.30;;;;;;;;;;5017911;28;20450;-71
2021/04/09 04:41:18;;;;;;;18.63;4.40;;;;;;;;;;5018124;28;20507;-71
2021/04/09 04:43:45;;;;;;;9.30;5.43;;;;;;;;;;5017768;28;20447;-71
2021/04/09 04:46:13;;;;;;;8.70;5.40;;;;;;;;;;5018442;28;20993;-71
2021/04/09 04:48:40;;;;;;;7.30;5.00;;;;;;;;;;5018009;28;20499;-71
2021/04/09 04:51:11;;;;;;;10.50;6.20;;;;;;;;;;5018016;28;20471;-71
2021/04/09 04:53:39;;;;;;;9.47;5.30;;;;;;;;;;5018282;28;20469;-72
2021/04/09 04:56:13;;;;;;;7.13;5.33;;;;;;;;;;5017535;28;20455;-72
2021/04/09 04:58:41;;;;;;;5.90;4.90;;;;;;;;;;5018069;28;21181;-72
2021/04/09 05:01:16;;;;;;;9.23;5.00;;;;;;;;;;5016698;28;20846;-72
2021/04/09 05:03:46;;;;;;;7.40;3.97;;;;;;;;;;5016309;28;20454;-71
2021/04/09 05:06:13;;;;;;;9.67;5.20;;;;;;;;;;5017550;28;20467;-71
2021/04/09 05:08:43;;;;;;;12.40;5.50;;;;;;;;;;5016338;28;20605;-71
2021/04/09 05:11:25;;;;;;;8.60;5.30;;;;;;;;;;5016457;28;20466;-72
2021/04/09 05:13:54;;;;;;;10.13;5.20;;;;;;;;;;5016476;28;20462;-71
2021/04/09 05:16:24;;;;;;;10.17;5.00;;;;;;;;;;5017338;28;20463;-71
2021/04/09 05:18:51;;;;;;;8.50;4.80;;;;;;;;;;5015765;28;20466;-72
2021/04/09 05:21:19;;;;;;;6.77;3.97;;;;;;;;;;5016310;28;20860;-72
2021/04/09 05:23:46;;;;;;;10.73;7.20;;;;;;;;;;5016646;28;20498;-72
2021/04/09 05:26:14;;;;;;;9.97;5.10;;;;;;;;;;5016721;28;20464;-72
2021/04/09 05:28:44;;;;;;;6.30;5.10;;;;;;;;;;5016125;28;20536;-71
2021/04/09 05:31:11;;;;;;;8.60;6.03;;;;;;;;;;5016755;28;20492;-71
2021/04/09 05:33:38;;;;;;;12.00;4.47;;;;;;;;;;5015580;28;21242;-71
2021/04/09 05:36:06;;;;;;;8.00;5.07;;;;;;;;;;5016862;28;20467;-71
2021/04/09 05:38:35;;;;;;;21.27;6.03;;;;;;;;;;5016811;28;20455;-71
2021/04/09 05:41:02;;;;;;;10.23;5.30;;;;;;;;;;5015955;28;20446;-72
2021/04/09 05:43:30;;;;;;;4.27;3.23;;;;;;;;;;5016671;28;20621;-71
2021/04/09 05:45:58;;;;;;;8.50;5.37;;;;;;;;;;5022703;28;20451;-71
2021/04/09 05:48:26;;;;;;;11.10;6.00;;;;;;;;;;5020117;28;20640;-72
2021/04/09 05:51:00;;;;;;;9.63;5.57;;;;;;;;;;5016327;28;20465;-71
2021/04/09 05:53:27;;;;;;;6.90;4.27;;;;;;;;;;5015990;28;20801;-71
2021/04/09 05:55:55;;;;;;;8.57;5.33;;;;;;;;;;5015847;28;20470;-72
2021/04/09 05:58:23;;;;;;;6.57;5.10;;;;;;;;;;5015691;28;20456;-72
2021/04/09 06:00:52;;;;;;;7.83;4.50;;;;;;;;;;5015762;28;20501;-72
2021/04/09 06:03:19;;;;;;;6.47;4.70;;;;;;;;;;5015539;28;20483;-71
2021/04/09 06:05:46;;;;;;;7.73;4.77;;;;;;;;;;5015049;28;20494;-71
2021/04/09 06:08:13;;;;;;;7.63;4.60;;;;;;;;;;5015137;28;20522;-71
2021/04/09 06:10:41;;;;;;;9.00;3.70;;;;;;;;;;5014622;28;20908;-71
2021/04/09 06:13:08;;;;;;;6.70;4.70;;;;;;;;;;5014837;28;20514;-71
2021/04/09 06:15:35;;;;;;;7.53;3.80;;;;;;;;;;5015031;28;20745;-71
2021/04/09 06:18:04;;;;;;;10.37;5.70;;;;;;;;;;5014710;28;20464;-71
2021/04/09 06:20:31;;;;;;;10.70;4.90;;;;;;;;;;5015229;28;20803;-71
2021/04/09 06:22:59;;;;;;;8.17;4.80;;;;;;;;;;5015654;28;20452;-71
2021/04/09 06:25:26;;;;;;;10.63;5.40;;;;;;;;;;5015496;28;20464;-71
2021/04/09 06:27:59;;;;;;;6.60;5.03;;;;;;;;;;5015509;28;20494;-71
2021/04/09 06:30:26;;;;;;;7.23;5.30;;;;;;;;;;5021854;28;20669;-72
2021/04/09 06:32:54;;;;;;;7.37;5.20;;;;;;;;;;5039940;28;20462;-72
2021/04/09 06:35:22;;;;;;;7.00;3.90;;;;;;;;;;5039877;28;20470;-71
2021/04/09 06:37:49;;;;;;;8.77;5.00;;;;;;;;;;5039085;28;20854;-71
2021/04/09 06:40:17;;;;;;;8.37;5.20;;;;;;;;;;5038463;28;20472;-71
2021/04/09 06:42:44;;;;;;;8.90;4.90;;;;;;;;;;5037998;28;20438;-72
2021/04/09 06:45:15;;;;;;;16.70;4.77;;;;;;;;;;5038378;28;20451;-72
2021/04/09 06:47:43;;;;;;;7.90;6.47;;;;;;;;;;5038856;28;20483;-72
2021/04/09 06:50:12;;;;;;;7.90;6.20;;;;;;;;;;5031505;28;20451;-72
2021/04/09 06:52:45;;;;;;;7.70;4.93;;;;;;;;;;5026430;28;20464;-71
2021/04/09 06:55:20;;;;;;;8.67;5.40;;;;;;;;;;5039613;28;20438;-72
2021/04/09 06:57:48;;;;;;;9.03;5.57;;;;;;;;;;5038023;28;20442;-72
2021/04/09 07:00:16;;;;;;;8.20;5.10;;;;;;;;;;5038078;28;20462;-71
2021/04/09 07:02:44;;;;;;;11.20;5.10;;;;;;;;;;5038025;28;20805;-71
2021/04/09 07:05:17;;;;;;;9.00;5.60;;;;;;;;;;5038782;28;21115;-71
2021/04/09 07:07:45;;;;;;;9.23;4.20;;;;;;;;;;5037767;28;20478;-71
2021/04/09 07:10:15;;;;;;;10.67;4.57;;;;;;;;;;5037757;28;20916;-72
2021/04/09 07:12:42;;;;;;;6.60;4.17;;;;;;;;;;5038455;28;20454;-71
2021/04/09 07:15:11;;;;;;;9.07;5.33;;;;;;;;;;5037395;28;20925;-71
2021/04/09 07:17:41;;;;;;;7.63;4.67;;;;;;;;;;5032716;28;20441;-72
2021/04/09 07:20:10;;;;;;;10.00;5.97;;;;;;;;;;5038494;28;20454;-72
2021/04/09 07:22:38;;;;;;;9.43;3.47;;;;;;;;;;5041167;28;20477;-70
2021/04/09 07:25:08;;;;;;;6.17;4.73;;;;;;;;;;5039250;28;20462;-71
2021/04/09 07:27:36;;;;;;;11.57;5.60;;;;;;;;;;5038303;28;20980;-71
2021/04/09 07:30:03;;;;;;;8.30;5.10;;;;;;;;;;5039750;28;20702;-72
2021/04/09 07:32:36;;;;;;;11.30;3.83;;;;;;;;;;5039380;28;20447;-71
2021/04/09 07:35:11;;;;;;;9.60;5.03;;;;;;;;;;5038798;28;20516;-71
2021/04/09 07:37:53;;;;;;;6.40;4.77;;;;;;;;;;5037543;28;20987;-71
2021/04/09 07:40:22;;;;;;;7.07;4.87;;;;;;;;;;5035178;28;20465;-72
2021/04/09 07:42:50;;;;;;;10.23;5.60;;;;;;;;;;5036546;28;20520;-71
2021/04/09 07:45:19;;;;;;;6.33;3.43;;;;;;;;;;5037070;28;20457;-71
2021/04/09 07:48:00;;;;;;;7.97;5.37;;;;;;;;;;5027032;28;20501;-71
2021/04/09 07:51:00;;;;;;;8.93;6.00;;;;;;;;;;5039756;28;20505;-71
2021/04/09 07:53:41;;;;;;;9.50;5.37;;;;;;;;;;5037382;28;20455;-72
2021/04/09 07:56:13;;;;;;;7.37;4.60;;;;;;;;;;5037153;28;20462;-70
2021/04/09 07:58:41;;;;;;;7.80;5.30;;;;;;;;;;5033676;28;20486;-71
2021/04/09 08:01:21;;;;;;;10.10;5.80;;;;;;;;;;5035105;28;20462;-71
2021/04/09 08:03:49;;;;;;;9.87;5.80;;;;;;;;;;5027615;28;20462;-70
2021/04/09 08:06:18;;;;;;;11.87;5.70;;;;;;;;;;5021479;28;20470;-72
2021/04/09 08:09:01;;;;;;;8.00;5.00;;;;;;;;;;5016620;28;21046;-72
2021/04/09 08:11:30;;;;;;;9.73;5.13;;;;;;;;;;5019242;28;20455;-72
2021/04/09 08:13:59;;;;;;;8.20;5.80;;;;;;;;;;5031964;28;20526;-71
2021/04/09 08:16:31;;;;;;;7.63;5.00;;;;;;;;;;5036403;28;20477;-72
2021/04/09 08:19:00;;;;;;;11.63;5.70;;;;;;;;;;5031824;28;20453;-70
2021/04/09 08:21:32;;;;;;;7.93;4.50;;;;;;;;;;5031390;28;20503;-70
2021/04/09 08:24:05;;;;;;;8.10;5.80;;;;;;;;;;5033581;28;20510;-71
2021/04/09 08:26:33;;;;;;;8.50;4.93;;;;;;;;;;5025632;28;20464;-70
2021/04/09 08:29:03;;;;;;;7.50;4.93;;;;;;;;;;5018517;28;20571;-70
2021/04/09 08:31:31;;;;;;;10.10;6.00;;;;;;;;;;5035528;28;20462;-71
2021/04/09 08:34:01;;;;;;;10.33;5.97;;;;;;;;;;5048940;28;20450;-71
2021/04/09 08:36:29;;;;;;;8.93;5.47;;;;;;;;;;5038482;28;20847;-70
2021/04/09 08:38:56;;;;;;;13.57;6.30;;;;;;;;;;5037308;28;20477;-70
2021/04/09 08:41:25;;;;;;;10.67;4.90;;;;;;;;;;5036534;28;20466;-70
2021/04/09 08:43:55;;;;;;;9.73;6.20;;;;;;;;;;5037301;28;20718;-70
2021/04/09 08:46:22;;;;;;;8.13;5.13;;;;;;;;;;5036359;28;20859;-70
2021/04/09 08:48:50;;;;;;;12.20;6.43;;;;;;;;;;5031626;28;20487;-70
2021/04/09 08:51:22;;;;;;;12.00;5.50;;;;;;;;;;5036745;28;20874;-74
2021/04/09 08:53:50;;;;;;;14.33;6.17;;;;;;;;;;5034737;28;20458;-70
2021/04/09 08:56:33;;;;;;;10.40;7.17;;;;;;;;;;5033011;28;20741;-70
2021/04/09 08:59:02;;;;;;;4.20;3.43;;;;;;;;;;5035359;28;20455;-69
2021/04/09 09:01:30;;;;;;;12.53;4.47;;;;;;;;;;5037228;28;20450;-70
2021/04/09 09:04:30;;;;;;;7.60;5.00;;;;;;;;;;5036064;28;20533;-70
2021/04/09 09:06:57;;;;;;;7.33;4.20;;;;;;;;;;5035561;28;20554;-71
2021/04/09 09:09:29;;;;;;;7.37;4.60;;;;;;;;;;5036393;28;20486;-71
2021/04/09 09:12:00;;;;;;;5.43;4.07;;;;;;;;;;5035554;28;20492;-71
2021/04/09 09:14:42;;;;;;;8.33;5.00;;;;;;;;;;5030071;28;20454;-72
2021/04/09 09:17:29;;;;;;;8.80;5.20;;;;;;;;;;5026479;28;20732;-71
2021/04/09 09:20:10;;;;;;;9.80;6.60;;;;;;;;;;5033942;28;20450;-70
2021/04/09 09:22:48;;;;;;;6.97;5.17;;;;;;;;;;5030035;28;20943;-72
2021/04/09 09:25:35;;;;;;;10.17;5.97;;;;;;;;;;5018994;28;20478;-70
2021/04/09 09:28:06;;;;;;;10.17;6.30;;;;;;;;;;5016988;28;20490;-72
2021/04/09 09:30:38;;;;;;;9.33;5.40;;;;;;;;;;5017949;28;20465;-71
2021/04/09 09:33:25;;;;;;;8.40;5.80;;;;;;;;;;5033268;28;20512;-71
2021/04/09 09:36:16;;;;;;;10.90;6.90;;;;;;;;;;5035718;28;20458;-70
2021/04/09 09:38:49;;;;;;;9.30;5.13;;;;;;;;;;5038260;28;20817;-70
2021/04/09 09:41:36;;;;;;;9.80;5.27;;;;;;;;;;5037504;28;20488;-72
2021/04/09 09:44:33;;;;;;;7.20;4.67;;;;;;;;;;5036651;28;20463;-70
2021/04/09 09:47:02;;;;;;;6.67;4.40;;;;;;;;;;5037839;28;20515;-68
2021/04/09 09:49:32;;;;;;;7.10;5.17;;;;;;;;;;5017714;28;20487;-70
2021/04/09 09:52:01;;;;;;;9.63;4.90;;;;;;;;;;5041159;28;20470;-70
2021/04/09 09:54:30;;;;;;;8.07;5.40;;;;;;;;;;5039103;28;20447;-70
2021/04/09 09:56:58;;;;;;;7.57;3.97;;;;;;;;;;5034543;28;20481;-70
2021/04/09 09:59:27;;;;;;;5.63;4.00;;;;;;;;;;5034948;28;20462;-70
2021/04/09 10:02:04;;;;;;;9.97;5.30;;;;;;;;;;5042909;28;20484;-70
2021/04/09 10:04:53;;;;;;;7.33;4.70;;;;;;;;;;5032547;28;20555;-70
2021/04/09 10:07:23;;;;;;;6.80;4.80;;;;;;;;;;5041990;28;20490;-71
2021/04/09 10:10:09;;;;;;;6.57;4.20;;;;;;;;;;5046699;28;20467;-72
2021/04/09 10:12:38;;;;;;;5.87;3.27;;;;;;;;;;5016960;28;20456;-71
2021/04/09 10:15:09;;;;;;;8.80;4.20;;;;;;;;;;5017451;28;20462;-71
2021/04/09 10:17:38;;;;;;;9.93;5.20;;;;;;;;;;5016217;28;20460;-71
2021/04/09 10:20:06;;;;;;;5.83;3.57;;;;;;;;;;5017529;28;20521;-70
2021/04/09 10:22:36;;;;;;;6.43;4.33;;;;;;;;;;5019159;28;20497;-71
2021/04/09 10:25:03;;;;;;;9.30;5.30;;;;;;;;;;5017981;28;20450;-71
2021/04/09 10:27:33;;;;;;;8.77;5.77;;;;;;;;;;5020942;28;20594;-71
2021/04/09 10:30:03;;;;;;;7.17;4.60;;;;;;;;;;5028296;28;20474;-70
2021/04/09 10:32:31;;;;;;;8.60;4.23;;;;;;;;;;5036391;28;20533;-71
2021/04/09 10:35:01;;;;;;;8.77;4.77;;;;;;;;;;5031792;28;20466;-70
2021/04/09 10:37:35;;;;;;;7.90;4.00;;;;;;;;;;5026502;28;20485;-70
2021/04/09 10:40:04;;;;;;;5.53;3.70;;;;;;;;;;5017464;28;20452;-70
2021/04/09 10:42:31;;;;;;;5.73;3.47;;;;;;;;;;5015074;28;20470;-71
2021/04/09 10:45:00;;;;;;;7.00;3.60;;;;;;;;;;5034375;28;20447;-70
2021/04/09 10:47:46;;;;;;;9.57;4.27;;;;;;;;;;5032227;28;20467;-69
2021/04/09 10:50:32;;;;;;;4.90;3.20;;;;;;;;;;5029507;28;20457;-69
2021/04/09 10:53:04;;;;;;;5.67;3.73;;;;;;;;;;5025407;28;20464;-70
2021/04/09 10:55:41;;;;;;;8.50;4.43;;;;;;;;;;5027301;28;20443;-70
2021/04/09 10:58:15;;;;;;;6.13;4.50;;;;;;;;;;5036370;28;20447;-70
2021/04/09 11:00:52;;;;;;;6.00;3.23;;;;;;;;;;5037659;28;20457;-70
2021/04/09 11:03:30;;;;;;;5.00;3.30;;;;;;;;;;5036171;28;20531;-70
2021/04/09 11:06:04;;;;;;;8.07;3.73;;;;;;;;;;5036433;28;20453;-70
2021/04/09 11:08:33;;;;;;;10.33;3.70;;;;;;;;;;5034253;28;20501;-71
2021/04/09 11:11:07;;;;;;;3.10;2.10;;;;;;;;;;5026323;28;20518;-71
2021/04/09 11:13:35;;;;;;;5.50;3.30;;;;;;;;;;5016909;28;20463;-70
2021/04/09 11:16:02;;;;;;;3.70;3.20;;;;;;;;;;5016869;28;20848;-70
2021/04/09 11:19:00;;;;;;;5.20;4.10;;;;;;;;;;5026862;28;20935;-70
2021/04/09 11:21:46;;;;;;;4.80;3.47;;;;;;;;;;5013737;28;20458;-71
2021/04/09 11:26:59;;;;;;;7.80;4.57;;;;;;;;;;5035832;28;20462;-70
2021/04/09 11:29:28;;;;;;;5.47;3.73;;;;;;;;;;5023460;28;20490;-71
2021/04/09 11:32:12;;;;;;;6.20;3.43;;;;;;;;;;5018555;28;20463;-71
2021/04/09 11:34:55;;;;;;;4.10;2.87;;;;;;;;;;5038392;28;20447;-70
2021/04/09 11:37:26;;;;;;;4.17;3.20;;;;;;;;;;5037340;28;20458;-72
2021/04/09 11:43:00;;;;;;;3.37;2.20;;;;;;;;;;5044989;28;20941;-70
2021/04/09 11:45:50;;;;;;;5.00;2.60;;;;;;;;;;5026203;28;20512;-71
2021/04/09 11:48:43;;;;;;;5.67;3.77;;;;;;;;;;5019513;28;20495;-70
2021/04/09 11:51:34;;;;;;;5.07;3.30;;;;;;;;;;5018677;28;20498;-71
2021/04/09 11:54:02;;;;;;;4.90;3.40;;;;;;;;;;5029617;28;20483;-71
2021/04/09 11:56:46;;;;;;;4.53;2.83;;;;;;;;;;5020505;28;20505;-70
2021/04/09 11:59:16;;;;;;;9.40;4.30;;;;;;;;;;5025377;28;21083;-71
2021/04/09 12:01:44;;;;;;;4.17;2.40;;;;;;;;;;5017678;28;20486;-71
2021/04/09 12:04:26;;;;;;;5.77;3.57;;;;;;;;;;5017593;28;20452;-71
2021/04/09 12:06:53;;;;;;;5.10;2.33;;;;;;;;;;5017251;28;20452;-70
2021/04/09 12:09:21;;;;;;;3.20;2.07;;;;;;;;;;5027255;28;20483;-71
2021/04/09 12:11:50;;;;;;;2.93;2.50;;;;;;;;;;5022112;28;20541;-71
2021/04/09 12:14:33;;;;;;;4.40;2.60;;;;;;;;;;5033996;28;20455;-71
2021/04/09 12:17:03;;;;;;;3.63;2.70;;;;;;;;;;5019645;28;20436;-70
2021/04/09 12:19:30;;;;;;;8.83;2.73;;;;;;;;;;5030934;28;20472;-71
2021/04/09 12:21:58;;;;;;;4.70;2.50;;;;;;;;;;5016979;28;20517;-71
2021/04/09 12:24:25;;;;;;;4.47;3.33;;;;;;;;;;5016504;28;20521;-71
2021/04/09 12:26:52;;;;;;;3.23;2.70;;;;;;;;;;5012416;28;20443;-70
2021/04/09 12:29:20;;;;;;;4.50;2.20;;;;;;;;;;5014849;28;20484;-71
2021/04/09 12:31:47;;;;;;;3.67;2.47;;;;;;;;;;5030988;28;20899;-70
2021/04/09 12:34:18;;;;;;;3.10;2.60;;;;;;;;;;5036048;28;20878;-71
2021/04/09 12:36:45;;;;;;;5.13;2.47;;;;;;;;;;5036391;28;20529;-70
2021/04/09 12:39:13;;;;;;;6.10;2.30;;;;;;;;;;5035643;28;20863;-71
2021/04/09 12:41:41;;;;;;;3.93;2.70;;;;;;;;;;5033059;28;20521;-71
2021/04/09 12:44:09;;;;;;;4.50;3.13;;;;;;;;;;5037513;28;20553;-70
2021/04/09 12:46:37;;;;;;;4.53;2.47;;;;;;;;;;5035865;28;20782;-70
2021/04/09 12:49:04;;;;;;;5.43;3.00;;;;;;;;;;5035216;28;20586;-70
2021/04/09 12:51:35;;;;;;;3.53;2.47;;;;;;;;;;5034705;28;20494;-70
2021/04/09 12:54:10;;;;;;;5.33;2.70;;;;;;;;;;5040780;28;20784;-71
2021/04/09 12:56:39;;;;;;;6.43;3.90;;;;;;;;;;5025881;28;20757;-71
2021/04/09 12:59:06;;;;;;;5.30;3.53;;;;;;;;;;5036127;28;20628;-70
2021/04/09 13:01:35;;;;;;;6.00;3.50;;;;;;;;;;5029672;28;20501;-72
2021/04/09 13:04:03;;;;;;;3.93;2.77;;;;;;;;;;5016696;28;20740;-71
2021/04/09 13:06:30;;;;;;;6.40;3.80;;;;;;;;;;5016124;28;21141;-71
2021/04/09 13:08:58;;;;;;;5.10;3.80;;;;;;;;;;5015416;28;20791;-70
2021/04/09 13:11:27;;;;;;;4.73;3.77;;;;;;;;;;5016450;28;20525;-71
2021/04/09 13:13:55;;;;;;;5.90;3.93;;;;;;;;;;5016413;28;20459;-71
2021/04/09 13:16:23;;;;;;;4.70;3.47;;;;;;;;;;5017637;28;20487;-72
2021/04/09 13:18:51;;;;;;;5.40;3.47;;;;;;;;;;5018735;28;20725;-69
2021/04/09 13:21:18;;;;;;;3.80;3.10;;;;;;;;;;5038341;28;20759;-71
2021/04/09 13:23:46;;;;;;;6.23;3.23;;;;;;;;;;5035269;28;20510;-70
2021/04/09 13:26:38;;;;;;;4.43;3.57;;;;;;;;;;5038552;28;20941;-71
2021/04/09 13:29:12;;;;;;;4.70;3.70;;;;;;;;;;5038622;28;20475;-69
2021/04/09 13:31:56;;;;;;;7.27;5.23;;;;;;;;;;5040222;28;20517;-69
2021/04/09 13:34:34;;;;;;;4.90;3.30;;;;;;;;;;5040872;28;21119;-71
2021/04/09 13:37:19;;;;;;;5.50;2.57;;;;;;;;;;5040255;28;20462;-70
2021/04/09 13:39:51;;;;;;;7.60;2.77;;;;;;;;;;5038043;28;20439;-70
2021/04/09 13:42:28;;;;;;;4.40;3.80;;;;;;;;;;5037971;28;20463;-68
2021/04/09 13:44:58;;;;;;;6.83;4.83;;;;;;;;;;5036569;28;20489;-71
2021/04/09 13:47:33;;;;;;;6.07;3.23;;;;;;;;;;5039037;28;20458;-70
2021/04/09 13:50:03;;;;;;;5.63;3.80;;;;;;;;;;5037729;28;20481;-70
2021/04/09 13:52:33;;;;;;;9.20;4.20;;;;;;;;;;5037476;28;20481;-70
2021/04/09 14:01:45;;;;;;;6.67;4.27;;;;;;;;;;5029138;28;20501;-70
2021/04/09 14:04:19;;;;;;;7.80;4.40;;;;;;;;;;5036767;28;20508;-71
2021/04/09 14:06:47;;;;;;;6.93;4.70;;;;;;;;;;5037165;28;20855;-70
2021/04/09 14:09:26;;;;;;;9.00;3.90;;;;;;;;;;5038927;28;20474;-71
2021/04/09 14:12:06;;;;;;;8.43;4.33;;;;;;;;;;5038400;28;20731;-69
2021/04/09 14:14:34;;;;;;;8.37;4.97;;;;;;;;;;5039569;28;20512;-70
2021/04/09 14:17:11;;;;;;;9.80;4.53;;;;;;;;;;5038857;28;20482;-71
2021/04/09 14:19:40;;;;;;;6.20;4.33;;;;;;;;;;5024526;28;20506;-70
2021/04/09 14:22:25;;;;;;;5.53;3.23;;;;;;;;;;5019889;28;20468;-70
2021/04/09 14:25:04;;;;;;;6.10;4.20;;;;;;;;;;5016389;28;20869;-69
2021/04/09 14:28:01;;;;;;;6.67;4.23;;;;;;;;;;5021613;28;20546;-71
2021/04/09 14:31:02;;;;;;;8.80;5.37;;;;;;;;;;5020800;28;20483;-70
2021/04/09 14:33:42;;;;;;;5.73;4.43;;;;;;;;;;5020410;28;20458;-71
2021/04/09 14:36:11;;;;;;;6.43;4.13;;;;;;;;;;5020983;28;20514;-71
2021/04/09 14:38:58;;;;;;;15.03;4.80;;;;;;;;;;5035704;28;20445;-71
2021/04/09 14:41:31;;;;;;;9.93;4.70;;;;;;;;;;5045880;28;20790;-71
2021/04/09 14:44:09;;;;;;;7.63;4.63;;;;;;;;;;5038231;28;20457;-72
2021/04/09 14:49:42;;;;;;;9.13;4.07;;;;;;;;;;5040840;28;20485;-73
2021/04/09 14:52:35;;;;;;;5.53;4.10;;;;;;;;;;5045412;28;20562;-70
2021/04/09 14:55:13;;;;;;;6.73;4.40;;;;;;;;;;5047275;28;20450;-71
2021/04/09 14:57:59;;;;;;;13.20;5.67;;;;;;;;;;5038262;28;20498;-70
2021/04/09 15:03:34;;;;;;;10.07;4.70;;;;;;;;;;5020423;28;20444;-71
2021/04/09 15:06:14;;;;;;;10.73;5.47;;;;;;;;;;5024807;28;20451;-72
2021/04/09 15:08:48;;;;;;;7.37;4.87;;;;;;;;;;5022132;28;20487;-71
2021/04/09 15:11:24;;;;;;;6.10;4.80;;;;;;;;;;5023463;28;20452;-72
2021/04/09 15:13:54;;;;;;;6.50;5.00;;;;;;;;;;5034658;28;20722;-70
2021/04/09 15:16:31;;;;;;;8.73;5.43;;;;;;;;;;5027167;28;20448;-71
2021/04/09 15:19:15;;;;;;;8.50;7.67;;;;;;;;;;5021728;28;20525;-70
2021/04/09 15:21:58;;;;;;;5.70;4.87;;;;;;;;;;5033497;28;20458;-70
2021/04/09 15:24:30;;;;;;;6.27;4.47;;;;;;;;;;5033003;28;20885;-72